Time;durP1;ratioP1;P1;durP2;ratioP2;P2;SDS_P1;SDS_P2;PMS_P1;PMS_P2;Temp;Humidity;BMP_temperature;BMP_pressure;BME280_temperature;BME280_humidity;BME280_pressure;Samples;Min_cycle;Max_cycle;Signal;HPM_P1;HPM_P2
2022/03/23 00:01:10;;;;;;;24.17;12.90;;;7.70;48.70;;;;;;4141649;28;20543;-81
2022/03/23 00:03:14;;;;;;;25.07;13.20;;;7.70;48.60;;;;;;4138696;28;20462;-81
2022/03/23 00:05:17;;;;;;;24.60;12.67;;;7.60;48.20;;;;;;4134879;28;20550;-81
2022/03/23 00:07:20;;;;;;;24.87;12.03;;;7.60;48.30;;;;;;4134597;28;20475;-81
2022/03/23 00:09:22;;;;;;;24.40;12.37;;;7.60;48.10;;;;;;4133629;28;20478;-81
2022/03/23 00:11:24;;;;;;;24.33;12.50;;;7.60;48.10;;;;;;4130886;28;20467;-81
2022/03/23 00:13:26;;;;;;;22.20;12.20;;;7.60;48.50;;;;;;4134939;28;20495;-81
2022/03/23 00:15:28;;;;;;;23.80;12.70;;;7.50;49.20;;;;;;4136466;28;20521;-81
2022/03/23 00:17:30;;;;;;;27.50;12.73;;;7.50;48.90;;;;;;4147947;28;20458;-81
2022/03/23 00:19:33;;;;;;;28.30;13.70;;;7.50;49.20;;;;;;4149624;28;20466;-81
2022/03/23 00:21:35;;;;;;;29.83;13.40;;;7.40;49.40;;;;;;4144000;28;20494;-81
2022/03/23 00:23:36;;;;;;;27.93;12.90;;;7.40;49.80;;;;;;4136881;28;20478;-81
2022/03/23 00:25:38;;;;;;;25.50;13.37;;;7.30;50.30;;;;;;4132314;28;20528;-81
2022/03/23 00:27:40;;;;;;;26.33;13.67;;;7.30;50.50;;;;;;4133974;28;21049;-81
2022/03/23 00:29:42;;;;;;;28.60;13.93;;;7.20;50.70;;;;;;4131335;28;20478;-81
2022/03/23 00:31:43;;;;;;;33.37;13.50;;;7.20;51.10;;;;;;4142423;28;20456;-81
2022/03/23 00:33:45;;;;;;;27.23;14.00;;;7.20;51.60;;;;;;4140717;28;20569;-81
2022/03/23 00:35:48;;;;;;;25.53;13.37;;;7.10;51.80;;;;;;4128730;28;20540;-81
2022/03/23 00:37:51;;;;;;;31.87;13.47;;;7.00;52.40;;;;;;4122177;28;20514;-81
2022/03/23 00:39:52;;;;;;;26.27;13.90;;;7.00;52.20;;;;;;4126646;28;20477;-81
2022/03/23 00:41:54;;;;;;;28.97;13.50;;;7.00;52.30;;;;;;4125093;28;20490;-81
2022/03/23 00:43:56;;;;;;;27.47;14.30;;;6.90;52.40;;;;;;4127290;28;20565;-81
2022/03/23 00:45:57;;;;;;;31.53;15.33;;;6.90;52.60;;;;;;4131842;28;20990;-80
2022/03/23 00:47:59;;;;;;;27.90;14.63;;;6.80;52.80;;;;;;4131962;28;20536;-80
2022/03/23 00:50:01;;;;;;;27.43;14.53;;;6.70;53.10;;;;;;4131843;28;20486;-80
2022/03/23 00:52:06;;;;;;;28.43;14.67;;;6.70;53.40;;;;;;4132758;28;20467;-80
2022/03/23 00:54:09;;;;;;;30.53;14.83;;;6.60;54.20;;;;;;4131146;28;20529;-80
2022/03/23 00:56:11;;;;;;;29.93;15.13;;;6.50;54.80;;;;;;4131320;28;20517;-80
2022/03/23 00:58:13;;;;;;;29.03;14.10;;;6.50;55.40;;;;;;4130881;28;20476;-80
2022/03/23 01:00:17;;;;;;;30.87;14.77;;;6.50;56.20;;;;;;4133738;28;20527;-80
2022/03/23 01:02:19;;;;;;;26.27;13.77;;;6.40;57.30;;;;;;4134956;28;21084;-79
2022/03/23 01:04:22;;;;;;;26.67;14.17;;;6.40;58.30;;;;;;4139608;28;20554;-80
2022/03/23 01:06:23;;;;;;;26.90;13.93;;;6.30;59.10;;;;;;4137758;28;20508;-80
2022/03/23 01:08:27;;;;;;;28.93;13.87;;;6.30;60.20;;;;;;4142523;28;20469;-80
2022/03/23 01:10:29;;;;;;;25.20;13.37;;;6.20;60.00;;;;;;4132952;28;20526;-80
2022/03/23 01:12:31;;;;;;;25.70;13.20;;;6.20;59.00;;;;;;4137317;28;20465;-80
2022/03/23 01:14:33;;;;;;;26.30;13.70;;;6.20;58.40;;;;;;4146580;28;20505;-80
2022/03/23 01:16:35;;;;;;;29.80;14.57;;;6.20;57.60;;;;;;4134787;28;20451;-80
2022/03/23 01:18:36;;;;;;;26.93;13.30;;;6.20;56.40;;;;;;4134708;28;20458;-80
2022/03/23 01:20:38;;;;;;;25.87;13.73;;;6.20;56.70;;;;;;4138133;28;20473;-80
2022/03/23 01:22:41;;;;;;;31.87;15.00;;;6.10;56.90;;;;;;4138148;28;20515;-80
2022/03/23 01:24:44;;;;;;;28.40;14.43;;;6.10;57.60;;;;;;4134986;28;20488;-80
2022/03/23 01:26:46;;;;;;;28.03;14.43;;;6.00;58.40;;;;;;4133095;28;21142;-80
2022/03/23 01:28:48;;;;;;;29.23;13.50;;;6.00;59.10;;;;;;4134462;28;20880;-80
2022/03/23 01:30:49;;;;;;;29.17;13.73;;;5.90;58.10;;;;;;4123664;28;21080;-80
2022/03/23 01:32:51;;;;;;;26.33;14.13;;;5.90;57.00;;;;;;4131443;28;20439;-80
2022/03/23 01:34:53;;;;;;;31.83;15.13;;;5.90;57.10;;;;;;4129184;28;20597;-80
2022/03/23 01:36:54;;;;;;;29.53;15.03;;;5.90;56.10;;;;;;4128025;28;20548;-80
2022/03/23 01:38:57;;;;;;;27.10;13.87;;;5.80;56.40;;;;;;4132131;28;20553;-80
2022/03/23 01:41:00;;;;;;;28.97;14.30;;;5.80;56.10;;;;;;4132749;28;20458;-80
2022/03/23 01:43:01;;;;;;;32.87;14.83;;;5.80;56.60;;;;;;4132189;28;20994;-79
2022/03/23 01:45:04;;;;;;;30.07;14.83;;;5.70;56.40;;;;;;4129815;28;20484;-80
2022/03/23 01:47:07;;;;;;;31.53;15.10;;;5.70;56.50;;;;;;4132015;28;20518;-80
2022/03/23 01:49:09;;;;;;;28.73;14.53;;;5.70;57.30;;;;;;4132104;28;20467;-80
2022/03/23 01:51:11;;;;;;;30.37;15.07;;;5.60;57.60;;;;;;4138644;28;20483;-80
2022/03/23 01:53:13;;;;;;;31.43;15.37;;;5.60;57.80;;;;;;4134540;28;20848;-80
2022/03/23 01:55:17;;;;;;;30.83;15.03;;;5.60;58.20;;;;;;4129833;28;20863;-80
2022/03/23 01:57:22;;;;;;;29.83;13.97;;;5.50;58.90;;;;;;4134469;28;20864;-80
2022/03/23 01:59:24;;;;;;;33.47;15.27;;;5.50;59.70;;;;;;4134294;28;20451;-80
2022/03/23 02:01:26;;;;;;;30.87;14.73;;;5.50;60.90;;;;;;4133407;28;20502;-80
2022/03/23 02:03:28;;;;;;;29.33;14.00;;;5.80;63.70;;;;;;4127914;28;20479;-80
2022/03/23 02:05:29;;;;;;;28.30;14.17;;;5.40;65.90;;;;;;4131385;28;20479;-80
2022/03/23 02:07:31;;;;;;;29.87;13.77;;;5.30;66.60;;;;;;4130182;28;20459;-80
2022/03/23 02:09:33;;;;;;;30.13;14.90;;;5.30;66.60;;;;;;4133158;28;20491;-80
2022/03/23 02:11:36;;;;;;;25.83;13.63;;;5.30;67.60;;;;;;4125204;28;20473;-80
2022/03/23 02:13:39;;;;;;;33.00;15.03;;;5.20;68.40;;;;;;4131489;28;20562;-80
2022/03/23 02:15:41;;;;;;;25.60;13.27;;;5.20;68.50;;;;;;4129948;28;20479;-79
2022/03/23 02:17:44;;;;;;;28.97;13.93;;;5.20;69.70;;;;;;4131415;28;20483;-79
2022/03/23 02:19:45;;;;;;;31.90;14.53;;;5.10;71.10;;;;;;4132195;28;20467;-79
2022/03/23 02:21:49;;;;;;;26.43;13.87;;;5.10;72.00;;;;;;4129558;28;20475;-80
2022/03/23 02:23:51;;;;;;;29.10;14.40;;;5.10;73.60;;;;;;4131027;28;20542;-79
2022/03/23 02:25:58;;;;;;;26.63;13.33;;;5.00;74.50;;;;;;4128548;28;20463;-79
2022/03/23 02:28:00;;;;;;;28.70;13.93;;;5.00;75.30;;;;;;4130042;28;20558;-79
2022/03/23 02:30:03;;;;;;;27.90;13.40;;;4.90;76.60;;;;;;4127917;28;20463;-79
2022/03/23 02:32:05;;;;;;;30.53;13.63;;;4.90;79.10;;;;;;4117581;28;20718;-80
2022/03/23 02:34:07;;;;;;;26.17;13.17;;;4.90;80.10;;;;;;4126643;28;20558;-80
2022/03/23 02:36:09;;;;;;;30.03;13.83;;;4.90;81.70;;;;;;4127129;28;20965;-79
2022/03/23 02:38:12;;;;;;;24.60;13.40;;;4.80;82.70;;;;;;4129211;28;20515;-79
2022/03/23 02:40:13;;;;;;;29.03;14.43;;;4.80;83.90;;;;;;4129450;28;20537;-79
2022/03/23 02:42:15;;;;;;;27.33;14.17;;;4.80;85.10;;;;;;4129613;28;20957;-79
2022/03/23 02:44:18;;;;;;;27.37;13.83;;;4.70;85.50;;;;;;4128419;28;20467;-79
2022/03/23 02:46:21;;;;;;;28.13;13.77;;;4.60;86.20;;;;;;4127236;28;20984;-79
2022/03/23 02:48:23;;;;;;;30.53;14.10;;;4.60;86.40;;;;;;4119891;28;20980;-79
2022/03/23 02:50:25;;;;;;;26.70;13.17;;;4.60;87.10;;;;;;4128123;28;20550;-79
2022/03/23 02:52:28;;;;;;;27.43;14.53;;;4.50;87.80;;;;;;4129173;28;20731;-78
2022/03/23 03:01:54;;;;;;;33.20;14.50;;;4.40;90.60;;;;;;4128681;28;20956;-79
2022/03/23 03:03:58;;;;;;;27.77;13.67;;;4.40;90.80;;;;;;4128105;28;20992;-78
2022/03/23 03:06:02;;;;;;;28.97;13.60;;;4.40;91.00;;;;;;4123683;28;20464;-79
2022/03/23 03:10:27;;;;;;;26.80;13.47;;;4.40;91.60;;;;;;4129914;28;20873;-79
2022/03/23 03:12:29;;;;;;;28.33;13.43;;;4.30;91.80;;;;;;4129186;28;20452;-78
2022/03/23 03:14:31;;;;;;;28.07;14.00;;;4.30;92.10;;;;;;4118018;28;20861;-79
2022/03/23 03:16:33;;;;;;;25.33;13.13;;;4.30;92.60;;;;;;4118521;28;20475;-79
2022/03/23 03:18:35;;;;;;;29.77;13.07;;;4.30;92.60;;;;;;4129905;28;20801;-79
2022/03/23 03:20:37;;;;;;;26.03;13.40;;;4.20;92.70;;;;;;4129785;28;20468;-79
2022/03/23 03:22:40;;;;;;;29.47;13.10;;;4.20;93.10;;;;;;4129853;28;20547;-79
2022/03/23 03:24:41;;;;;;;28.57;14.37;;;4.20;93.70;;;;;;4128837;28;20526;-78
2022/03/23 03:26:45;;;;;;;30.20;13.37;;;4.10;95.30;;;;;;4128360;28;20475;-79
2022/03/23 03:28:46;;;;;;;26.50;14.20;;;4.10;95.00;;;;;;4128477;28;20467;-78
2022/03/23 03:30:48;;;;;;;28.13;13.43;;;4.10;95.40;;;;;;4128745;28;20470;-78
2022/03/23 03:32:50;;;;;;;28.53;13.10;;;4.10;95.70;;;;;;4119744;28;20479;-78
2022/03/23 03:34:51;;;;;;;25.80;13.60;;;4.10;96.30;;;;;;4127570;28;20783;-78
2022/03/23 03:36:53;;;;;;;27.33;13.63;;;4.00;96.70;;;;;;4128345;28;20471;-78
2022/03/23 03:38:55;;;;;;;29.90;13.27;;;4.00;97.20;;;;;;4128849;28;20952;-79
2022/03/23 03:40:57;;;;;;;28.63;13.73;;;4.00;97.30;;;;;;4127009;28;20483;-78
2022/03/23 03:43:00;;;;;;;35.77;14.77;;;4.00;98.50;;;;;;4129062;28;20482;-78
2022/03/23 03:45:04;;;;;;;27.00;13.70;;;4.00;98.80;;;;;;4128679;28;20509;-78
2022/03/23 03:47:06;;;;;;;26.47;13.60;;;3.90;99.40;;;;;;4127748;28;20494;-78
2022/03/23 03:49:08;;;;;;;24.57;12.87;;;3.90;99.60;;;;;;4126759;28;22319;-78
2022/03/23 03:51:11;;;;;;;28.67;13.77;;;3.90;99.90;;;;;;4126636;28;20554;-78
2022/03/23 03:53:13;;;;;;;29.97;13.53;;;3.80;99.90;;;;;;4126762;28;20566;-78
2022/03/23 03:55:14;;;;;;;27.07;13.37;;;3.80;99.90;;;;;;4128731;28;20541;-78
2022/03/23 03:57:16;;;;;;;27.10;13.43;;;3.80;99.90;;;;;;4132402;28;20464;-78
2022/03/23 03:59:19;;;;;;;25.93;13.23;;;3.80;99.90;;;;;;4127644;28;20811;-78
2022/03/23 04:01:21;;;;;;;30.17;13.10;;;3.70;99.90;;;;;;4121965;28;20873;-78
2022/03/23 04:03:22;;;;;;;30.40;14.27;;;3.70;99.90;;;;;;4126645;28;20468;-78
2022/03/23 04:05:24;;;;;;;28.77;14.00;;;3.60;99.90;;;;;;4128518;28;21105;-78
2022/03/23 04:07:26;;;;;;;28.57;14.00;;;3.60;99.90;;;;;;4132847;28;20466;-78
2022/03/23 04:09:27;;;;;;;28.00;13.20;;;3.60;99.90;;;;;;4129307;28;20502;-78
2022/03/23 04:11:30;;;;;;;27.33;13.20;;;3.60;99.90;;;;;;4142584;28;20463;-78
2022/03/23 04:13:32;;;;;;;28.50;14.60;;;3.50;99.90;;;;;;4140036;28;21253;-78
2022/03/23 04:15:35;;;;;;;30.60;14.80;;;3.50;99.90;;;;;;4146005;28;20495;-78
2022/03/23 04:17:37;;;;;;;28.57;13.63;;;3.40;99.90;;;;;;4139870;28;20467;-77
2022/03/23 04:19:39;;;;;;;30.73;13.63;;;3.40;99.90;;;;;;4130509;28;20630;-78
2022/03/23 04:21:40;;;;;;;27.70;13.93;;;3.40;99.90;;;;;;4129008;28;20521;-78
2022/03/23 04:23:42;;;;;;;27.67;13.23;;;3.40;99.90;;;;;;4128945;28;20533;-78
2022/03/23 04:25:44;;;;;;;25.97;13.67;;;3.40;99.90;;;;;;4130813;28;20464;-79
2022/03/23 04:27:46;;;;;;;30.13;14.27;;;3.30;99.90;;;;;;4129170;28;20479;-78
2022/03/23 04:29:48;;;;;;;30.17;13.77;;;3.30;99.90;;;;;;4132414;28;20480;-79
2022/03/23 04:31:51;;;;;;;29.50;14.07;;;3.30;99.90;;;;;;4128674;28;20557;-79
2022/03/23 04:33:53;;;;;;;30.03;13.33;;;3.20;99.90;;;;;;4128871;28;20533;-79
2022/03/23 04:35:55;;;;;;;28.50;13.67;;;3.20;99.90;;;;;;4129264;28;20495;-78
2022/03/23 04:37:57;;;;;;;28.43;13.73;;;3.20;99.90;;;;;;4129077;28;20479;-78
2022/03/23 04:39:59;;;;;;;30.17;13.97;;;3.20;99.90;;;;;;4129001;28;20534;-79
2022/03/23 04:42:02;;;;;;;31.17;14.33;;;3.20;99.90;;;;;;4129563;28;21014;-79
2022/03/23 04:44:03;;;;;;;28.23;13.50;;;3.20;99.90;;;;;;4129162;28;20483;-79
2022/03/23 04:46:06;;;;;;;31.63;14.43;;;3.10;99.90;;;;;;4126165;28;20957;-79
2022/03/23 04:48:09;;;;;;;27.00;13.77;;;3.10;99.90;;;;;;4129547;28;20527;-79
2022/03/23 04:50:11;;;;;;;29.00;13.50;;;3.10;99.90;;;;;;4131726;28;20478;-79
2022/03/23 04:52:13;;;;;;;31.20;13.27;;;3.10;99.90;;;;;;4131542;28;20482;-80
2022/03/23 04:54:15;;;;;;;30.07;14.33;;;3.00;99.90;;;;;;4126626;28;20498;-79
2022/03/23 04:56:16;;;;;;;29.27;14.03;;;3.00;99.90;;;;;;4120002;28;21041;-80
2022/03/23 04:58:18;;;;;;;29.83;13.90;;;3.00;99.90;;;;;;4124302;28;20468;-79
2022/03/23 05:00:21;;;;;;;28.50;13.87;;;3.00;99.90;;;;;;4125320;28;20478;-79
2022/03/23 05:02:23;;;;;;;27.30;12.83;;;2.90;99.90;;;;;;4125053;28;20462;-79
2022/03/23 05:04:26;;;;;;;31.50;14.20;;;2.90;99.90;;;;;;4125927;28;20500;-79
2022/03/23 05:06:27;;;;;;;29.63;13.87;;;2.90;99.90;;;;;;4125201;28;20498;-79
2022/03/23 05:08:29;;;;;;;26.30;13.70;;;2.90;99.90;;;;;;4128307;28;20471;-79
2022/03/23 05:10:31;;;;;;;28.70;13.47;;;2.90;99.90;;;;;;4130318;28;20916;-79
2022/03/23 05:12:33;;;;;;;28.03;14.13;;;2.80;99.90;;;;;;4137659;28;20459;-79
2022/03/23 05:14:35;;;;;;;28.70;13.47;;;2.80;99.90;;;;;;4123705;28;21442;-79
2022/03/23 05:16:37;;;;;;;26.57;13.30;;;2.80;99.90;;;;;;4126476;28;20510;-79
2022/03/23 05:18:41;;;;;;;27.40;12.70;;;2.80;99.90;;;;;;4128017;28;20984;-79
2022/03/23 05:20:44;;;;;;;30.30;14.07;;;2.80;99.90;;;;;;4126834;28;21005;-79
2022/03/23 05:22:46;;;;;;;29.60;14.00;;;2.80;99.90;;;;;;4125363;28;20857;-79
2022/03/23 05:24:47;;;;;;;27.77;13.27;;;2.80;99.90;;;;;;4124636;28;20549;-79
2022/03/23 05:26:49;;;;;;;28.53;13.43;;;2.80;99.90;;;;;;4126724;28;20486;-79
2022/03/23 05:28:51;;;;;;;29.17;13.73;;;2.90;99.90;;;;;;4124776;28;20465;-79
2022/03/23 05:30:53;;;;;;;26.87;13.30;;;2.80;99.90;;;;;;4135120;28;21887;-79
2022/03/23 05:32:54;;;;;;;29.00;13.70;;;2.80;99.90;;;;;;4128345;28;20505;-79
2022/03/23 05:34:56;;;;;;;27.37;13.50;;;2.80;99.90;;;;;;4126993;28;20486;-80
2022/03/23 05:36:59;;;;;;;31.30;13.87;;;2.80;99.90;;;;;;4127854;28;20471;-79
2022/03/23 05:39:01;;;;;;;28.73;13.70;;;2.80;99.90;;;;;;4125728;28;20458;-79
2022/03/23 05:41:03;;;;;;;27.60;13.37;;;2.80;99.90;;;;;;4118549;28;20479;-79
2022/03/23 05:43:04;;;;;;;26.20;13.60;;;2.80;99.90;;;;;;4128040;28;20459;-79
2022/03/23 05:45:07;;;;;;;32.43;14.17;;;2.70;99.90;;;;;;4127929;28;20503;-79
2022/03/23 05:47:09;;;;;;;32.63;15.27;;;2.70;99.90;;;;;;4127992;28;20476;-79
2022/03/23 05:49:11;;;;;;;27.87;14.63;;;2.70;99.90;;;;;;4129501;28;20460;-80
2022/03/23 05:51:12;;;;;;;28.07;14.20;;;2.70;99.90;;;;;;4128615;28;20490;-79
2022/03/23 05:53:15;;;;;;;30.47;13.43;;;2.70;99.90;;;;;;4127853;28;20475;-79
2022/03/23 05:55:17;;;;;;;26.30;12.60;;;2.70;99.90;;;;;;4127195;28;20500;-78
2022/03/23 05:57:19;;;;;;;24.70;13.30;;;2.70;99.90;;;;;;4126852;28;20479;-78
2022/03/23 05:59:21;;;;;;;25.97;13.80;;;2.70;99.90;;;;;;4129508;28;20467;-79
2022/03/23 06:01:23;;;;;;;30.23;14.50;;;2.70;99.90;;;;;;4127373;28;21050;-79
2022/03/23 06:03:24;;;;;;;28.30;14.67;;;2.70;99.90;;;;;;4126581;28;20541;-78
2022/03/23 06:05:26;;;;;;;27.90;14.70;;;2.70;99.90;;;;;;4126105;28;20948;-79
2022/03/23 06:07:28;;;;;;;31.97;15.47;;;2.70;99.90;;;;;;4125100;28;20525;-79
2022/03/23 06:09:31;;;;;;;31.60;15.53;;;2.70;99.90;;;;;;4124838;28;20569;-79
2022/03/23 06:11:33;;;;;;;32.83;15.53;;;2.70;99.90;;;;;;4125201;28;20810;-79
2022/03/23 06:13:34;;;;;;;35.63;16.10;;;2.70;99.90;;;;;;4125897;28;20541;-79
2022/03/23 06:15:37;;;;;;;29.50;15.27;;;2.70;99.90;;;;;;4124014;28;20522;-78
2022/03/23 06:17:39;;;;;;;30.70;15.70;;;2.70;99.90;;;;;;4123303;28;20479;-79
2022/03/23 06:19:40;;;;;;;34.70;15.67;;;2.70;99.90;;;;;;4125243;28;20522;-78
2022/03/23 06:21:42;;;;;;;31.03;15.60;;;2.70;99.90;;;;;;4127888;28;20508;-79
2022/03/23 06:23:44;;;;;;;28.47;14.67;;;2.70;99.90;;;;;;4126685;28;20491;-79
2022/03/23 06:25:47;;;;;;;31.60;15.30;;;2.70;99.90;;;;;;4126582;28;20459;-78
2022/03/23 06:27:49;;;;;;;34.47;15.13;;;2.70;99.90;;;;;;4140543;28;20515;-81
2022/03/23 06:29:50;;;;;;;30.70;14.77;;;2.70;99.90;;;;;;4123695;28;20467;-78
2022/03/23 06:31:52;;;;;;;34.33;15.00;;;2.70;99.90;;;;;;4121873;28;20482;-77
2022/03/23 06:33:54;;;;;;;32.40;15.20;;;2.70;99.90;;;;;;4126415;28;20485;-80
2022/03/23 06:35:56;;;;;;;30.47;15.27;;;2.70;99.90;;;;;;4128389;28;21007;-79
2022/03/23 06:37:57;;;;;;;28.87;14.37;;;2.70;99.90;;;;;;4136448;28;20458;-79
2022/03/23 06:39:59;;;;;;;32.80;14.43;;;2.70;99.90;;;;;;4126868;28;20470;-81
2022/03/23 06:42:02;;;;;;;29.27;14.10;;;2.80;99.90;;;;;;4125481;28;21006;-80
2022/03/23 06:44:05;;;;;;;33.77;15.50;;;2.80;99.90;;;;;;4127649;28;20483;-79
2022/03/23 06:46:06;;;;;;;33.37;15.17;;;2.80;99.90;;;;;;4127909;28;20458;-80
2022/03/23 06:48:09;;;;;;;30.17;15.00;;;2.80;99.90;;;;;;4125974;28;20524;-79
2022/03/23 06:50:10;;;;;;;35.83;15.97;;;2.80;99.90;;;;;;4127332;28;20480;-80
2022/03/23 06:52:12;;;;;;;29.07;14.43;;;2.80;99.90;;;;;;4136843;28;20462;-81
2022/03/23 06:54:14;;;;;;;27.83;14.00;;;2.80;99.90;;;;;;4139472;28;20491;-81
2022/03/23 06:56:16;;;;;;;31.60;13.97;;;2.90;99.90;;;;;;4134141;28;20533;-80
2022/03/23 06:58:19;;;;;;;26.27;14.60;;;2.90;99.90;;;;;;4130133;28;20561;-79
2022/03/23 07:00:20;;;;;;;32.50;14.10;;;2.90;99.90;;;;;;4136811;28;20494;-82
2022/03/23 07:02:22;;;;;;;29.47;14.27;;;2.90;99.90;;;;;;4127073;28;20830;-81
2022/03/23 07:04:25;;;;;;;27.83;14.40;;;2.90;99.90;;;;;;4130189;28;20504;-80
2022/03/23 07:06:27;;;;;;;31.10;15.13;;;3.00;99.90;;;;;;4124228;28;20498;-81
2022/03/23 07:10:47;;;;;;;31.13;14.60;;;3.00;99.90;;;;;;4120556;28;20519;-79
2022/03/23 07:12:49;;;;;;;28.67;14.03;;;3.10;99.90;;;;;;4121702;28;20472;-79
2022/03/23 07:14:52;;;;;;;31.27;14.47;;;3.10;99.90;;;;;;4122470;28;20495;-81
2022/03/23 07:16:54;;;;;;;29.80;13.90;;;3.10;99.90;;;;;;4119091;28;20527;-81
2022/03/23 07:18:56;;;;;;;33.93;14.00;;;3.20;99.90;;;;;;4124909;28;20526;-82
2022/03/23 07:20:57;;;;;;;29.10;13.93;;;3.20;99.90;;;;;;4124804;28;20522;-79
2022/03/23 07:22:59;;;;;;;29.47;14.07;;;3.30;99.90;;;;;;4122242;28;20510;-80
2022/03/23 07:25:01;;;;;;;28.53;13.93;;;3.30;99.90;;;;;;4124401;28;21072;-80
2022/03/23 07:27:03;;;;;;;29.57;12.97;;;3.40;99.90;;;;;;4125382;28;20838;-81
2022/03/23 07:29:05;;;;;;;26.53;12.87;;;3.40;99.90;;;;;;4120664;28;20463;-80
2022/03/23 07:31:08;;;;;;;26.10;12.90;;;3.40;99.90;;;;;;4116781;28;20526;-80
2022/03/23 07:33:10;;;;;;;27.70;13.47;;;3.40;99.90;;;;;;4119399;28;20495;-80
2022/03/23 07:35:12;;;;;;;28.60;13.17;;;3.50;99.90;;;;;;4122867;28;20979;-80
2022/03/23 07:37:14;;;;;;;25.67;13.07;;;3.60;99.90;;;;;;4131202;28;20576;-81
2022/03/23 07:39:20;;;;;;;25.83;13.60;;;3.60;99.90;;;;;;4108450;28;20480;-79
2022/03/23 07:41:22;;;;;;;27.87;13.53;;;3.60;99.90;;;;;;4123118;28;20468;-79
2022/03/23 07:43:24;;;;;;;26.33;12.83;;;3.70;99.90;;;;;;4140737;28;20517;-80
2022/03/23 07:45:26;;;;;;;27.87;12.60;;;3.70;99.90;;;;;;4124040;28;20539;-81
2022/03/23 07:47:29;;;;;;;24.30;12.80;;;3.70;99.90;;;;;;4120810;28;20949;-81
2022/03/23 07:49:31;;;;;;;25.77;12.90;;;3.80;99.90;;;;;;4119574;28;20458;-80
2022/03/23 07:51:34;;;;;;;25.80;13.43;;;3.80;99.90;;;;;;4125895;28;20533;-80
2022/03/23 07:53:35;;;;;;;22.13;12.80;;;3.90;99.90;;;;;;4125680;28;20499;-80
2022/03/23 07:55:37;;;;;;;26.90;13.80;;;3.90;99.90;;;;;;4132561;28;20463;-79
2022/03/23 07:57:39;;;;;;;27.40;12.97;;;4.00;99.90;;;;;;4132150;28;20526;-83
2022/03/23 07:59:41;;;;;;;25.97;12.87;;;4.00;99.90;;;;;;4127905;28;20779;-79
2022/03/23 08:01:43;;;;;;;25.83;12.77;;;4.10;99.90;;;;;;4129438;28;20471;-79
2022/03/23 08:03:46;;;;;;;26.57;14.70;;;4.10;99.90;;;;;;4127504;28;20530;-79
2022/03/23 08:05:48;;;;;;;27.20;13.17;;;4.20;99.90;;;;;;4127604;28;20463;-79
2022/03/23 08:07:50;;;;;;;25.70;13.20;;;4.30;99.90;;;;;;4125369;28;21064;-80
2022/03/23 08:09:52;;;;;;;26.70;13.83;;;4.30;99.90;;;;;;4136898;28;20459;-84
2022/03/23 08:11:53;;;;;;;27.57;14.37;;;4.40;99.90;;;;;;4148998;28;20494;-80
2022/03/23 08:13:55;;;;;;;30.03;15.07;;;4.40;99.60;;;;;;4153394;28;20509;-80
2022/03/23 08:15:57;;;;;;;30.53;14.07;;;4.60;96.20;;;;;;4152441;28;20501;-80
2022/03/23 08:17:59;;;;;;;30.77;15.00;;;4.70;95.80;;;;;;4131960;28;20474;-83
2022/03/23 08:22:21;;;;;;;26.43;14.43;;;4.80;93.90;;;;;;4123809;28;20470;-80
2022/03/23 08:24:23;;;;;;;28.50;14.00;;;4.90;93.40;;;;;;4116758;28;20566;-79
2022/03/23 08:26:24;;;;;;;26.53;13.77;;;5.00;91.70;;;;;;4122268;28;20483;-80
2022/03/23 08:28:26;;;;;;;29.30;14.13;;;5.10;90.70;;;;;;4122408;28;20468;-80
2022/03/23 08:30:28;;;;;;;27.63;14.23;;;5.10;89.50;;;;;;4119065;28;20452;-81
2022/03/23 08:32:30;;;;;;;26.37;13.37;;;5.20;86.90;;;;;;4125190;28;20839;-81
2022/03/23 08:34:33;;;;;;;25.93;13.20;;;5.30;87.70;;;;;;4127958;28;20499;-80
2022/03/23 08:36:36;;;;;;;30.43;13.70;;;5.30;87.60;;;;;;4128929;28;20480;-81
2022/03/23 08:38:38;;;;;;;26.60;12.47;;;5.40;85.40;;;;;;4119309;28;20472;-80
2022/03/23 08:40:40;;;;;;;28.80;14.30;;;5.50;83.60;;;;;;4130360;28;20448;-80
2022/03/23 08:42:42;;;;;;;24.20;12.73;;;5.60;80.20;;;;;;4125129;28;20473;-81
2022/03/23 08:44:45;;;;;;;22.77;12.97;;;5.70;79.70;;;;;;4129106;28;20862;-79
2022/03/23 08:46:46;;;;;;;22.83;12.37;;;5.80;79.90;;;;;;4132721;28;20886;-79
2022/03/23 08:48:50;;;;;;;22.77;12.33;;;5.80;81.00;;;;;;4110230;28;20497;-79
2022/03/23 08:50:52;;;;;;;22.10;11.80;;;5.90;80.20;;;;;;4124054;28;20513;-80
2022/03/23 08:52:55;;;;;;;25.20;12.47;;;5.90;78.50;;;;;;4132122;28;20481;-81
2022/03/23 08:54:57;;;;;;;21.50;12.13;;;6.10;76.50;;;;;;4123777;28;20846;-81
2022/03/23 08:56:59;;;;;;;24.87;12.77;;;6.20;73.30;;;;;;4122578;28;20514;-80
2022/03/23 08:59:01;;;;;;;21.43;12.63;;;6.20;71.30;;;;;;4119417;28;20471;-80
2022/03/23 09:01:03;;;;;;;24.67;12.83;;;6.30;70.40;;;;;;4128381;28;21048;-80
2022/03/23 09:03:04;;;;;;;29.03;13.53;;;6.30;69.80;;;;;;4122001;28;20475;-81
2022/03/23 09:05:10;;;;;;;24.67;13.23;;;6.40;67.90;;;;;;4126072;28;20907;-80
2022/03/23 09:07:12;;;;;;;25.63;12.97;;;6.50;67.10;;;;;;4124722;28;20463;-80
2022/03/23 09:09:15;;;;;;;23.83;12.90;;;6.60;66.70;;;;;;4126109;28;20584;-80
2022/03/23 09:11:16;;;;;;;25.40;13.20;;;6.70;65.70;;;;;;4128308;28;20463;-80
2022/03/23 09:13:19;;;;;;;26.57;13.50;;;6.80;65.20;;;;;;4125319;28;20508;-81
2022/03/23 09:15:23;;;;;;;26.07;13.63;;;6.90;65.30;;;;;;4122798;28;20566;-80
2022/03/23 09:17:25;;;;;;;25.13;13.70;;;7.00;65.70;;;;;;4126530;28;20584;-80
2022/03/23 09:19:26;;;;;;;27.23;13.83;;;7.00;67.10;;;;;;4127958;28;20526;-81
2022/03/23 09:21:28;;;;;;;24.73;14.27;;;7.10;66.90;;;;;;4125715;28;21043;-81
2022/03/23 09:23:30;;;;;;;29.47;14.30;;;7.20;65.20;;;;;;4127578;28;20513;-81
2022/03/23 09:25:33;;;;;;;28.13;15.03;;;7.30;62.30;;;;;;4125361;28;20846;-80
2022/03/23 09:27:35;;;;;;;29.33;16.10;;;7.50;60.00;;;;;;4126323;28;20471;-80
2022/03/23 09:29:37;;;;;;;28.57;15.00;;;7.50;60.10;;;;;;4121431;28;20482;-78
2022/03/23 09:31:39;;;;;;;28.13;14.67;;;7.60;60.90;;;;;;4116942;28;20479;-79
2022/03/23 09:33:42;;;;;;;29.10;14.90;;;7.70;60.60;;;;;;4121315;28;20511;-78
2022/03/23 09:35:44;;;;;;;26.57;14.50;;;7.80;59.60;;;;;;4123471;28;20474;-79
2022/03/23 09:37:47;;;;;;;28.50;14.80;;;7.90;58.90;;;;;;4120009;28;20488;-79
2022/03/23 09:39:49;;;;;;;25.87;14.33;;;7.90;58.20;;;;;;4119714;28;20475;-78
2022/03/23 09:41:54;;;;;;;26.13;14.67;;;8.00;58.00;;;;;;4123433;28;20507;-78
2022/03/23 09:43:56;;;;;;;27.57;14.73;;;8.10;57.80;;;;;;4120721;28;20263;-78
2022/03/23 09:45:58;;;;;;;27.43;14.50;;;8.20;58.20;;;;;;4122021;28;20459;-78
2022/03/23 09:48:00;;;;;;;24.57;14.33;;;8.30;57.80;;;;;;4124765;28;20768;-78
2022/03/23 09:50:02;;;;;;;26.90;14.67;;;8.30;57.80;;;;;;4128087;28;20483;-83
2022/03/23 09:52:05;;;;;;;28.30;15.13;;;8.40;57.80;;;;;;4126961;28;20675;-86
2022/03/23 09:54:07;;;;;;;25.73;14.47;;;8.50;57.60;;;;;;4126434;28;20322;-84
2022/03/23 09:56:09;;;;;;;25.50;14.00;;;8.50;58.10;;;;;;4127935;28;20212;-80
2022/03/23 09:58:13;;;;;;;25.73;14.40;;;8.60;56.90;;;;;;4127770;28;20236;-81
2022/03/23 10:00:15;;;;;;;28.20;14.50;;;8.70;55.80;;;;;;4122811;28;20216;-82
2022/03/23 10:03:06;;;;;;;24.10;13.47;;;8.80;55.10;;;;;;4125594;28;20216;-82
2022/03/23 10:05:49;;;;;;;26.67;14.07;;;8.90;55.30;;;;;;4124791;28;20224;-82
2022/03/23 10:07:57;;;;;;;26.43;13.87;;;9.00;56.50;;;;;;4124661;28;20241;-82
2022/03/23 10:10:42;;;;;;;27.93;14.90;;;9.00;56.10;;;;;;4122675;28;20220;-82
2022/03/23 10:13:21;;;;;;;30.93;14.53;;;9.20;53.90;;;;;;4105254;28;20304;-82
2022/03/23 10:16:03;;;;;;;27.00;15.13;;;9.40;53.30;;;;;;4130126;28;20553;-82
2022/03/23 10:18:50;;;;;;;23.40;13.90;;;9.50;52.40;;;;;;4128524;28;20643;-82
2022/03/23 10:20:52;;;;;;;23.77;13.50;;;9.70;51.60;;;;;;4117011;28;20217;-82
2022/03/23 10:22:55;;;;;;;24.63;13.63;;;9.80;52.10;;;;;;4122221;28;20598;-83
2022/03/23 10:25:06;;;;;;;25.47;14.70;;;9.90;51.90;;;;;;4124578;28;20234;-82
2022/03/23 10:27:11;;;;;;;26.43;14.60;;;10.00;51.00;;;;;;4117357;28;20215;-82
2022/03/23 10:29:21;;;;;;;23.83;13.30;;;10.10;50.60;;;;;;4127243;28;20750;-82
2022/03/23 10:31:25;;;;;;;21.63;13.03;;;10.10;51.20;;;;;;4119934;28;20685;-83
2022/03/23 10:33:27;;;;;;;23.87;13.43;;;10.20;51.50;;;;;;4120957;28;20215;-82
2022/03/23 10:35:38;;;;;;;25.60;14.53;;;10.40;50.30;;;;;;4125764;28;20276;-82
2022/03/23 10:37:39;;;;;;;22.50;13.57;;;10.50;49.20;;;;;;4123253;28;20234;-82
2022/03/23 10:39:42;;;;;;;21.50;13.30;;;10.50;48.70;;;;;;4124367;28;20222;-83
2022/03/23 10:41:44;;;;;;;21.80;13.50;;;10.60;49.00;;;;;;4129340;28;20705;-82
2022/03/23 10:43:45;;;;;;;25.17;14.07;;;10.70;49.20;;;;;;4129682;28;20258;-82
2022/03/23 10:45:47;;;;;;;22.47;13.10;;;10.70;48.00;;;;;;4134620;28;20219;-83